sensor_id;sensor_type;location;lat;lon;timestamp;temperature;humidity
73360;DHT22;63092;43.582;19.528;2023-04-03T00:02:15;9.30;98.10
73360;DHT22;63092;43.582;19.528;2023-04-03T00:04:40;9.30;98.50
73360;DHT22;63092;43.582;19.528;2023-04-03T00:07:06;9.10;99.20
73360;DHT22;63092;43.582;19.528;2023-04-03T00:09:32;9.10;99.50
73360;DHT22;63092;43.582;19.528;2023-04-03T00:11:57;9.00;99.60
73360;DHT22;63092;43.582;19.528;2023-04-03T00:14:23;8.90;99.80
73360;DHT22;63092;43.582;19.528;2023-04-03T00:16:49;8.90;99.90
73360;DHT22;63092;43.582;19.528;2023-04-03T00:19:14;8.80;99.90
73360;DHT22;63092;43.582;19.528;2023-04-03T00:21:40;8.80;99.90
73360;DHT22;63092;43.582;19.528;2023-04-03T00:24:06;8.70;99.90
73360;DHT22;63092;43.582;19.528;2023-04-03T00:26:32;8.70;99.90
73360;DHT22;63092;43.582;19.528;2023-04-03T00:28:57;8.80;99.90
73360;DHT22;63092;43.582;19.528;2023-04-03T00:31:23;8.70;99.90
73360;DHT22;63092;43.582;19.528;2023-04-03T00:33:49;8.70;99.90
73360;DHT22;63092;43.582;19.528;2023-04-03T00:36:15;8.70;99.90
73360;DHT22;63092;43.582;19.528;2023-04-03T00:38:41;8.60;99.90
73360;DHT22;63092;43.582;19.528;2023-04-03T00:41:07;8.70;99.90
73360;DHT22;63092;43.582;19.528;2023-04-03T00:43:33;8.70;99.90
73360;DHT22;63092;43.582;19.528;2023-04-03T00:45:59;8.80;99.90
73360;DHT22;63092;43.582;19.528;2023-04-03T00:48:36;8.80;99.90
73360;DHT22;63092;43.582;19.528;2023-04-03T00:51:04;8.80;99.90
73360;DHT22;63092;43.582;19.528;2023-04-03T00:53:37;8.80;99.90
73360;DHT22;63092;43.582;19.528;2023-04-03T00:56:06;8.90;99.90
73360;DHT22;63092;43.582;19.528;2023-04-03T00:58:41;8.70;99.90
73360;DHT22;63092;43.582;19.528;2023-04-03T01:01:12;8.70;99.90
73360;DHT22;63092;43.582;19.528;2023-04-03T01:03:39;8.70;99.90
73360;DHT22;63092;43.582;19.528;2023-04-03T01:06:05;8.70;99.90
73360;DHT22;63092;43.582;19.528;2023-04-03T01:08:31;8.60;99.90
73360;DHT22;63092;43.582;19.528;2023-04-03T01:10:57;8.60;99.90
73360;DHT22;63092;43.582;19.528;2023-04-03T01:13:31;8.70;99.90
73360;DHT22;63092;43.582;19.528;2023-04-03T01:16:01;8.80;99.90
73360;DHT22;63092;43.582;19.528;2023-04-03T01:18:27;8.80;99.90
73360;DHT22;63092;43.582;19.528;2023-04-03T01:26:28;8.80;99.90
73360;DHT22;63092;43.582;19.528;2023-04-03T01:28:54;8.90;99.90
73360;DHT22;63092;43.582;19.528;2023-04-03T01:31:43;8.80;99.90
73360;DHT22;63092;43.582;19.528;2023-04-03T01:34:09;8.90;99.90
73360;DHT22;63092;43.582;19.528;2023-04-03T01:36:34;8.90;99.90
73360;DHT22;63092;43.582;19.528;2023-04-03T01:39:00;9.00;99.90
73360;DHT22;63092;43.582;19.528;2023-04-03T01:41:26;9.00;99.90
73360;DHT22;63092;43.582;19.528;2023-04-03T01:43:52;9.00;99.90
73360;DHT22;63092;43.582;19.528;2023-04-03T01:46:19;9.00;99.90
73360;DHT22;63092;43.582;19.528;2023-04-03T01:48:45;9.00;99.90
73360;DHT22;63092;43.582;19.528;2023-04-03T01:51:11;9.00;99.90
73360;DHT22;63092;43.582;19.528;2023-04-03T01:53:36;8.80;99.90
73360;DHT22;63092;43.582;19.528;2023-04-03T01:56:03;8.90;99.90
73360;DHT22;63092;43.582;19.528;2023-04-03T01:58:28;8.90;99.90
73360;DHT22;63092;43.582;19.528;2023-04-03T02:00:54;8.90;99.90
73360;DHT22;63092;43.582;19.528;2023-04-03T02:03:21;8.80;99.90
73360;DHT22;63092;43.582;19.528;2023-04-03T02:05:47;8.70;99.90
73360;DHT22;63092;43.582;19.528;2023-04-03T02:08:13;8.70;99.90
73360;DHT22;63092;43.582;19.528;2023-04-03T02:10:39;8.60;99.90
73360;DHT22;63092;43.582;19.528;2023-04-03T02:13:05;8.60;99.90
73360;DHT22;63092;43.582;19.528;2023-04-03T02:15:31;8.50;99.90
73360;DHT22;63092;43.582;19.528;2023-04-03T02:17:57;8.40;99.90
73360;DHT22;63092;43.582;19.528;2023-04-03T02:20:22;8.40;99.90
73360;DHT22;63092;43.582;19.528;2023-04-03T02:22:48;8.30;99.90
73360;DHT22;63092;43.582;19.528;2023-04-03T02:25:14;8.40;99.90
73360;DHT22;63092;43.582;19.528;2023-04-03T02:27:40;8.50;99.90
73360;DHT22;63092;43.582;19.528;2023-04-03T02:30:07;8.50;99.90
73360;DHT22;63092;43.582;19.528;2023-04-03T02:32:34;8.50;99.90
73360;DHT22;63092;43.582;19.528;2023-04-03T02:35:00;8.40;99.90
73360;DHT22;63092;43.582;19.528;2023-04-03T02:37:26;8.40;99.90
73360;DHT22;63092;43.582;19.528;2023-04-03T02:39:51;8.40;99.90
73360;DHT22;63092;43.582;19.528;2023-04-03T02:42:17;8.50;99.90
73360;DHT22;63092;43.582;19.528;2023-04-03T02:44:43;8.60;99.90
73360;DHT22;63092;43.582;19.528;2023-04-03T02:47:08;8.70;99.90
73360;DHT22;63092;43.582;19.528;2023-04-03T02:49:34;8.70;99.90
73360;DHT22;63092;43.582;19.528;2023-04-03T02:52:00;8.80;99.90
73360;DHT22;63092;43.582;19.528;2023-04-03T02:54:25;8.70;99.90
73360;DHT22;63092;43.582;19.528;2023-04-03T02:56:54;8.60;99.90
73360;DHT22;63092;43.582;19.528;2023-04-03T02:59:20;8.60;99.90
73360;DHT22;63092;43.582;19.528;2023-04-03T03:01:46;8.70;99.90
73360;DHT22;63092;43.582;19.528;2023-04-03T03:04:11;8.80;99.90
73360;DHT22;63092;43.582;19.528;2023-04-03T03:06:37;8.80;99.90
73360;DHT22;63092;43.582;19.528;2023-04-03T03:09:03;8.60;99.90
73360;DHT22;63092;43.582;19.528;2023-04-03T03:11:29;8.70;99.90
73360;DHT22;63092;43.582;19.528;2023-04-03T03:13:55;8.70;99.90
73360;DHT22;63092;43.582;19.528;2023-04-03T03:16:21;8.70;99.90
73360;DHT22;63092;43.582;19.528;2023-04-03T03:18:47;8.80;99.90
73360;DHT22;63092;43.582;19.528;2023-04-03T03:21:13;8.80;99.90
73360;DHT22;63092;43.582;19.528;2023-04-03T03:23:38;8.70;99.90
73360;DHT22;63092;43.582;19.528;2023-04-03T03:26:07;8.70;99.90
73360;DHT22;63092;43.582;19.528;2023-04-03T03:28:35;8.70;99.90
73360;DHT22;63092;43.582;19.528;2023-04-03T03:31:02;8.60;99.90
73360;DHT22;63092;43.582;19.528;2023-04-03T03:33:28;8.60;99.90
73360;DHT22;63092;43.582;19.528;2023-04-03T03:35:54;8.70;99.90
73360;DHT22;63092;43.582;19.528;2023-04-03T03:38:20;8.60;99.90
73360;DHT22;63092;43.582;19.528;2023-04-03T03:40:47;8.50;99.90
73360;DHT22;63092;43.582;19.528;2023-04-03T03:43:14;8.50;99.90
73360;DHT22;63092;43.582;19.528;2023-04-03T03:45:40;8.50;99.90
73360;DHT22;63092;43.582;19.528;2023-04-03T03:48:05;8.70;99.90
73360;DHT22;63092;43.582;19.528;2023-04-03T03:50:31;8.70;99.90
73360;DHT22;63092;43.582;19.528;2023-04-03T03:52:57;8.80;99.90
73360;DHT22;63092;43.582;19.528;2023-04-03T03:55:22;8.80;99.90
73360;DHT22;63092;43.582;19.528;2023-04-03T03:57:48;8.80;99.90
73360;DHT22;63092;43.582;19.528;2023-04-03T04:00:14;8.80;99.90
73360;DHT22;63092;43.582;19.528;2023-04-03T04:02:40;8.90;99.90
73360;DHT22;63092;43.582;19.528;2023-04-03T04:05:06;8.90;99.90
73360;DHT22;63092;43.582;19.528;2023-04-03T04:07:31;8.90;99.90
73360;DHT22;63092;43.582;19.528;2023-04-03T04:09:57;8.90;99.90
73360;DHT22;63092;43.582;19.528;2023-04-03T04:12:23;8.90;99.90
73360;DHT22;63092;43.582;19.528;2023-04-03T04:14:49;8.90;99.90
73360;DHT22;63092;43.582;19.528;2023-04-03T04:17:14;8.90;99.90
73360;DHT22;63092;43.582;19.528;2023-04-03T04:19:40;8.90;99.90
73360;DHT22;63092;43.582;19.528;2023-04-03T04:22:06;8.90;99.90
73360;DHT22;63092;43.582;19.528;2023-04-03T04:24:32;9.00;99.90
73360;DHT22;63092;43.582;19.528;2023-04-03T04:26:58;9.00;99.90
73360;DHT22;63092;43.582;19.528;2023-04-03T04:29:24;9.00;99.90
73360;DHT22;63092;43.582;19.528;2023-04-03T04:31:49;9.00;99.90
73360;DHT22;63092;43.582;19.528;2023-04-03T04:34:15;9.00;99.90
73360;DHT22;63092;43.582;19.528;2023-04-03T04:36:41;9.00;99.90
73360;DHT22;63092;43.582;19.528;2023-04-03T04:39:07;9.00;99.90
73360;DHT22;63092;43.582;19.528;2023-04-03T04:41:33;9.00;99.90
73360;DHT22;63092;43.582;19.528;2023-04-03T04:43:59;9.00;99.90
73360;DHT22;63092;43.582;19.528;2023-04-03T04:46:25;9.00;99.90
73360;DHT22;63092;43.582;19.528;2023-04-03T04:48:51;9.00;99.90
73360;DHT22;63092;43.582;19.528;2023-04-03T04:51:17;9.00;99.90
73360;DHT22;63092;43.582;19.528;2023-04-03T04:53:43;9.00;99.90
73360;DHT22;63092;43.582;19.528;2023-04-03T04:56:09;9.00;99.90
73360;DHT22;63092;43.582;19.528;2023-04-03T04:58:35;9.00;99.90
73360;DHT22;63092;43.582;19.528;2023-04-03T05:01:02;8.90;99.90
73360;DHT22;63092;43.582;19.528;2023-04-03T05:03:28;8.90;99.90
73360;DHT22;63092;43.582;19.528;2023-04-03T05:05:54;8.90;99.90
73360;DHT22;63092;43.582;19.528;2023-04-03T05:08:20;8.80;99.90
73360;DHT22;63092;43.582;19.528;2023-04-03T05:10:46;8.70;99.90
73360;DHT22;63092;43.582;19.528;2023-04-03T05:13:12;8.70;99.90
73360;DHT22;63092;43.582;19.528;2023-04-03T05:15:38;8.70;99.90
73360;DHT22;63092;43.582;19.528;2023-04-03T05:18:04;8.60;99.90
73360;DHT22;63092;43.582;19.528;2023-04-03T05:20:31;8.60;99.90
73360;DHT22;63092;43.582;19.528;2023-04-03T05:22:56;8.50;99.90
73360;DHT22;63092;43.582;19.528;2023-04-03T05:25:22;8.40;99.90
73360;DHT22;63092;43.582;19.528;2023-04-03T05:27:48;8.30;99.90
73360;DHT22;63092;43.582;19.528;2023-04-03T05:30:14;8.00;99.90
73360;DHT22;63092;43.582;19.528;2023-04-03T05:32:39;8.10;99.90
73360;DHT22;63092;43.582;19.528;2023-04-03T05:35:06;8.00;99.90
73360;DHT22;63092;43.582;19.528;2023-04-03T05:37:33;8.00;99.90
73360;DHT22;63092;43.582;19.528;2023-04-03T05:39:59;7.80;99.90
73360;DHT22;63092;43.582;19.528;2023-04-03T05:42:25;7.90;99.90
73360;DHT22;63092;43.582;19.528;2023-04-03T05:44:50;7.80;99.90
73360;DHT22;63092;43.582;19.528;2023-04-03T05:47:17;8.00;99.90
73360;DHT22;63092;43.582;19.528;2023-04-03T05:49:42;8.00;99.90
73360;DHT22;63092;43.582;19.528;2023-04-03T05:52:32;8.00;99.90
73360;DHT22;63092;43.582;19.528;2023-04-03T05:54:58;7.90;99.90
73360;DHT22;63092;43.582;19.528;2023-04-03T05:57:24;7.90;99.90
73360;DHT22;63092;43.582;19.528;2023-04-03T05:59:50;8.00;99.90
73360;DHT22;63092;43.582;19.528;2023-04-03T06:02:18;8.00;99.90
73360;DHT22;63092;43.582;19.528;2023-04-03T06:04:44;8.00;99.90
73360;DHT22;63092;43.582;19.528;2023-04-03T06:07:15;7.90;99.90
73360;DHT22;63092;43.582;19.528;2023-04-03T06:09:42;7.90;99.90
73360;DHT22;63092;43.582;19.528;2023-04-03T06:12:08;8.00;99.90
73360;DHT22;63092;43.582;19.528;2023-04-03T06:14:34;8.10;99.90
73360;DHT22;63092;43.582;19.528;2023-04-03T06:17:00;8.20;99.90
73360;DHT22;63092;43.582;19.528;2023-04-03T06:19:27;8.30;99.90
73360;DHT22;63092;43.582;19.528;2023-04-03T06:21:53;8.40;99.90
73360;DHT22;63092;43.582;19.528;2023-04-03T06:24:19;8.50;99.90
73360;DHT22;63092;43.582;19.528;2023-04-03T06:26:47;8.50;99.90
73360;DHT22;63092;43.582;19.528;2023-04-03T06:29:12;8.60;99.90
73360;DHT22;63092;43.582;19.528;2023-04-03T06:31:38;8.70;99.90
73360;DHT22;63092;43.582;19.528;2023-04-03T06:34:05;8.70;99.90
73360;DHT22;63092;43.582;19.528;2023-04-03T06:36:31;8.80;99.90
73360;DHT22;63092;43.582;19.528;2023-04-03T06:38:57;8.70;99.90
73360;DHT22;63092;43.582;19.528;2023-04-03T06:41:23;8.70;99.90
73360;DHT22;63092;43.582;19.528;2023-04-03T06:43:48;8.70;99.90
73360;DHT22;63092;43.582;19.528;2023-04-03T06:46:20;8.90;99.90
73360;DHT22;63092;43.582;19.528;2023-04-03T06:48:47;8.90;99.90
73360;DHT22;63092;43.582;19.528;2023-04-03T06:51:26;9.00;99.90
73360;DHT22;63092;43.582;19.528;2023-04-03T06:53:54;9.00;99.90
73360;DHT22;63092;43.582;19.528;2023-04-03T06:56:20;9.10;99.90
73360;DHT22;63092;43.582;19.528;2023-04-03T06:58:46;8.90;99.80
73360;DHT22;63092;43.582;19.528;2023-04-03T07:01:14;8.80;99.30
73360;DHT22;63092;43.582;19.528;2023-04-03T07:03:40;8.90;99.60
73360;DHT22;63092;43.582;19.528;2023-04-03T07:06:09;8.90;99.80
73360;DHT22;63092;43.582;19.528;2023-04-03T07:08:36;8.90;99.70
73360;DHT22;63092;43.582;19.528;2023-04-03T07:11:02;9.00;99.40
73360;DHT22;63092;43.582;19.528;2023-04-03T07:13:28;9.00;99.20
73360;DHT22;63092;43.582;19.528;2023-04-03T07:15:54;9.00;99.10
73360;DHT22;63092;43.582;19.528;2023-04-03T07:18:20;8.90;98.80
73360;DHT22;63092;43.582;19.528;2023-04-03T07:20:46;8.90;98.80
73360;DHT22;63092;43.582;19.528;2023-04-03T07:23:12;8.80;98.50
73360;DHT22;63092;43.582;19.528;2023-04-03T07:25:43;8.80;98.90
73360;DHT22;63092;43.582;19.528;2023-04-03T07:28:09;8.80;99.10
73360;DHT22;63092;43.582;19.528;2023-04-03T07:30:35;8.80;98.90
73360;DHT22;63092;43.582;19.528;2023-04-03T07:33:07;8.80;98.70
73360;DHT22;63092;43.582;19.528;2023-04-03T07:35:33;8.70;98.40
73360;DHT22;63092;43.582;19.528;2023-04-03T07:37:59;8.70;98.70
73360;DHT22;63092;43.582;19.528;2023-04-03T07:40:25;8.70;98.10
73360;DHT22;63092;43.582;19.528;2023-04-03T07:42:50;8.80;98.30
73360;DHT22;63092;43.582;19.528;2023-04-03T07:45:16;8.90;98.20
73360;DHT22;63092;43.582;19.528;2023-04-03T07:47:42;8.90;98.30
73360;DHT22;63092;43.582;19.528;2023-04-03T07:50:08;8.90;98.10
73360;DHT22;63092;43.582;19.528;2023-04-03T07:52:34;8.90;98.90
73360;DHT22;63092;43.582;19.528;2023-04-03T07:54:59;9.00;98.10
73360;DHT22;63092;43.582;19.528;2023-04-03T07:57:25;8.90;97.30
73360;DHT22;63092;43.582;19.528;2023-04-03T07:59:51;8.80;96.90
73360;DHT22;63092;43.582;19.528;2023-04-03T08:02:16;8.70;97.00
73360;DHT22;63092;43.582;19.528;2023-04-03T08:04:42;8.70;97.10
73360;DHT22;63092;43.582;19.528;2023-04-03T08:07:08;8.70;96.90
73360;DHT22;63092;43.582;19.528;2023-04-03T08:09:33;8.70;97.50
73360;DHT22;63092;43.582;19.528;2023-04-03T08:11:59;8.70;97.60
73360;DHT22;63092;43.582;19.528;2023-04-03T08:14:25;8.70;97.20
73360;DHT22;63092;43.582;19.528;2023-04-03T08:16:50;8.70;96.80
73360;DHT22;63092;43.582;19.528;2023-04-03T08:19:17;8.70;95.80
73360;DHT22;63092;43.582;19.528;2023-04-03T08:21:44;8.70;95.90
73360;DHT22;63092;43.582;19.528;2023-04-03T08:24:11;8.60;94.60
73360;DHT22;63092;43.582;19.528;2023-04-03T08:26:37;8.70;94.20
73360;DHT22;63092;43.582;19.528;2023-04-03T08:29:03;8.70;94.00
73360;DHT22;63092;43.582;19.528;2023-04-03T08:31:29;8.60;93.80
73360;DHT22;63092;43.582;19.528;2023-04-03T08:33:56;8.70;94.30
73360;DHT22;63092;43.582;19.528;2023-04-03T08:36:25;8.80;93.70
73360;DHT22;63092;43.582;19.528;2023-04-03T08:38:52;8.80;93.50
73360;DHT22;63092;43.582;19.528;2023-04-03T08:49:43;8.70;92.80
73360;DHT22;63092;43.582;19.528;2023-04-03T08:52:23;8.50;92.90
73360;DHT22;63092;43.582;19.528;2023-04-03T08:55:00;8.70;93.20
73360;DHT22;63092;43.582;19.528;2023-04-03T08:57:30;8.70;92.40
73360;DHT22;63092;43.582;19.528;2023-04-03T09:00:24;8.50;92.10
73360;DHT22;63092;43.582;19.528;2023-04-03T09:02:52;8.50;92.20
73360;DHT22;63092;43.582;19.528;2023-04-03T09:05:19;8.40;92.10
73360;DHT22;63092;43.582;19.528;2023-04-03T09:07:55;8.30;92.80
73360;DHT22;63092;43.582;19.528;2023-04-03T09:10:32;8.30;92.70
73360;DHT22;63092;43.582;19.528;2023-04-03T09:13:12;8.30;92.40
73360;DHT22;63092;43.582;19.528;2023-04-03T09:15:39;8.20;92.10
73360;DHT22;63092;43.582;19.528;2023-04-03T09:18:13;8.30;91.90
73360;DHT22;63092;43.582;19.528;2023-04-03T09:21:07;8.20;92.20
73360;DHT22;63092;43.582;19.528;2023-04-03T09:23:43;8.40;92.20
73360;DHT22;63092;43.582;19.528;2023-04-03T09:26:16;8.40;92.20
73360;DHT22;63092;43.582;19.528;2023-04-03T09:28:42;8.40;91.70
73360;DHT22;63092;43.582;19.528;2023-04-03T09:31:20;8.30;92.20
73360;DHT22;63092;43.582;19.528;2023-04-03T09:33:50;8.40;92.20
73360;DHT22;63092;43.582;19.528;2023-04-03T09:36:37;8.40;91.80
73360;DHT22;63092;43.582;19.528;2023-04-03T09:39:20;8.40;92.00
73360;DHT22;63092;43.582;19.528;2023-04-03T09:42:15;8.50;92.00
73360;DHT22;63092;43.582;19.528;2023-04-03T09:44:54;8.70;91.40
73360;DHT22;63092;43.582;19.528;2023-04-03T09:47:31;8.40;91.40
73360;DHT22;63092;43.582;19.528;2023-04-03T09:52:44;8.50;91.60
73360;DHT22;63092;43.582;19.528;2023-04-03T09:55:22;8.50;91.80
73360;DHT22;63092;43.582;19.528;2023-04-03T09:57:53;8.40;93.10
73360;DHT22;63092;43.582;19.528;2023-04-03T10:02:51;8.40;93.50
73360;DHT22;63092;43.582;19.528;2023-04-03T10:05:30;8.50;93.40
73360;DHT22;63092;43.582;19.528;2023-04-03T10:08:33;8.70;93.30
73360;DHT22;63092;43.582;19.528;2023-04-03T10:11:11;8.70;92.80
73360;DHT22;63092;43.582;19.528;2023-04-03T10:13:53;8.80;92.10
73360;DHT22;63092;43.582;19.528;2023-04-03T10:16:25;8.90;92.00
73360;DHT22;63092;43.582;19.528;2023-04-03T10:24:21;8.70;91.80
73360;DHT22;63092;43.582;19.528;2023-04-03T10:34:59;8.60;93.40
73360;DHT22;63092;43.582;19.528;2023-04-03T10:37:34;8.60;93.20
73360;DHT22;63092;43.582;19.528;2023-04-03T10:51:29;8.30;94.60
73360;DHT22;63092;43.582;19.528;2023-04-03T10:56:50;8.30;94.60
73360;DHT22;63092;43.582;19.528;2023-04-03T11:01:56;8.40;94.20
73360;DHT22;63092;43.582;19.528;2023-04-03T11:04:26;8.50;94.90
73360;DHT22;63092;43.582;19.528;2023-04-03T11:06:55;8.40;94.70
73360;DHT22;63092;43.582;19.528;2023-04-03T11:09:27;8.40;94.10
73360;DHT22;63092;43.582;19.528;2023-04-03T11:11:58;8.30;95.90
73360;DHT22;63092;43.582;19.528;2023-04-03T11:14:27;7.90;96.90
73360;DHT22;63092;43.582;19.528;2023-04-03T11:17:19;8.20;97.20
73360;DHT22;63092;43.582;19.528;2023-04-03T11:22:39;8.20;97.60
73360;DHT22;63092;43.582;19.528;2023-04-03T11:27:46;8.00;97.30
73360;DHT22;63092;43.582;19.528;2023-04-03T11:36:18;8.20;99.10
73360;DHT22;63092;43.582;19.528;2023-04-03T11:38:46;8.20;98.40
73360;DHT22;63092;43.582;19.528;2023-04-03T11:41:13;7.90;98.80
73360;DHT22;63092;43.582;19.528;2023-04-03T11:46:50;8.10;98.60
73360;DHT22;63092;43.582;19.528;2023-04-03T11:57:46;7.80;98.20
73360;DHT22;63092;43.582;19.528;2023-04-03T12:14:01;7.60;99.80
73360;DHT22;63092;43.582;19.528;2023-04-03T12:16:44;7.70;99.10
73360;DHT22;63092;43.582;19.528;2023-04-03T12:26:47;7.80;99.60
73360;DHT22;63092;43.582;19.528;2023-04-03T12:35:09;7.80;99.70
73360;DHT22;63092;43.582;19.528;2023-04-03T12:43:33;7.60;99.90
73360;DHT22;63092;43.582;19.528;2023-04-03T12:46:23;7.40;99.00
73360;DHT22;63092;43.582;19.528;2023-04-03T12:48:55;7.50;99.60
73360;DHT22;63092;43.582;19.528;2023-04-03T12:51:34;7.50;99.10
73360;DHT22;63092;43.582;19.528;2023-04-03T12:54:12;7.50;99.90
73360;DHT22;63092;43.582;19.528;2023-04-03T12:56:38;7.50;99.90
73360;DHT22;63092;43.582;19.528;2023-04-03T12:59:20;7.40;99.90
73360;DHT22;63092;43.582;19.528;2023-04-03T13:02:02;7.50;99.70
73360;DHT22;63092;43.582;19.528;2023-04-03T13:04:30;7.40;99.90
73360;DHT22;63092;43.582;19.528;2023-04-03T13:06:57;7.30;99.90
73360;DHT22;63092;43.582;19.528;2023-04-03T13:09:32;7.30;99.90
73360;DHT22;63092;43.582;19.528;2023-04-03T13:12:03;7.40;99.90
73360;DHT22;63092;43.582;19.528;2023-04-03T13:14:35;7.30;99.90
73360;DHT22;63092;43.582;19.528;2023-04-03T13:17:12;7.40;99.90
73360;DHT22;63092;43.582;19.528;2023-04-03T13:19:39;7.40;99.90
73360;DHT22;63092;43.582;19.528;2023-04-03T13:22:34;7.40;99.90
73360;DHT22;63092;43.582;19.528;2023-04-03T13:25:07;7.30;99.90
73360;DHT22;63092;43.582;19.528;2023-04-03T13:27:35;7.20;99.90
73360;DHT22;63092;43.582;19.528;2023-04-03T13:30:03;7.10;99.90
73360;DHT22;63092;43.582;19.528;2023-04-03T13:32:30;7.10;99.90
73360;DHT22;63092;43.582;19.528;2023-04-03T13:34:56;7.20;99.90
73360;DHT22;63092;43.582;19.528;2023-04-03T13:37:33;7.10;99.90
73360;DHT22;63092;43.582;19.528;2023-04-03T13:40:01;7.10;99.90
73360;DHT22;63092;43.582;19.528;2023-04-03T13:42:32;7.10;99.90
73360;DHT22;63092;43.582;19.528;2023-04-03T13:45:28;7.10;99.90
73360;DHT22;63092;43.582;19.528;2023-04-03T13:48:18;7.10;99.90
73360;DHT22;63092;43.582;19.528;2023-04-03T13:53:44;7.00;99.90
73360;DHT22;63092;43.582;19.528;2023-04-03T13:56:33;7.00;99.90
73360;DHT22;63092;43.582;19.528;2023-04-03T14:02:14;6.90;99.90
73360;DHT22;63092;43.582;19.528;2023-04-03T14:07:06;7.20;99.90
73360;DHT22;63092;43.582;19.528;2023-04-03T14:09:31;7.00;99.90
73360;DHT22;63092;43.582;19.528;2023-04-03T14:12:04;6.90;99.90
73360;DHT22;63092;43.582;19.528;2023-04-03T14:14:34;6.90;99.90
73360;DHT22;63092;43.582;19.528;2023-04-03T14:17:02;7.00;99.90
73360;DHT22;63092;43.582;19.528;2023-04-03T14:19:35;7.00;99.90
73360;DHT22;63092;43.582;19.528;2023-04-03T14:22:11;6.80;99.90
73360;DHT22;63092;43.582;19.528;2023-04-03T14:24:38;6.80;99.90
73360;DHT22;63092;43.582;19.528;2023-04-03T14:27:14;6.80;99.90
73360;DHT22;63092;43.582;19.528;2023-04-03T14:29:41;7.00;99.90
73360;DHT22;63092;43.582;19.528;2023-04-03T14:32:06;7.00;99.90
73360;DHT22;63092;43.582;19.528;2023-04-03T14:34:32;7.10;99.90
73360;DHT22;63092;43.582;19.528;2023-04-03T14:36:58;7.10;99.90
73360;DHT22;63092;43.582;19.528;2023-04-03T14:39:24;7.10;99.90
73360;DHT22;63092;43.582;19.528;2023-04-03T14:41:50;7.00;99.90
73360;DHT22;63092;43.582;19.528;2023-04-03T14:44:15;7.10;99.90
73360;DHT22;63092;43.582;19.528;2023-04-03T14:46:43;7.10;99.90
73360;DHT22;63092;43.582;19.528;2023-04-03T14:49:15;7.00;99.90
73360;DHT22;63092;43.582;19.528;2023-04-03T14:51:41;7.00;99.90
73360;DHT22;63092;43.582;19.528;2023-04-03T14:54:14;6.80;99.90
73360;DHT22;63092;43.582;19.528;2023-04-03T14:56:39;6.90;99.90
73360;DHT22;63092;43.582;19.528;2023-04-03T14:59:09;6.80;99.90
73360;DHT22;63092;43.582;19.528;2023-04-03T15:01:37;6.80;99.90
73360;DHT22;63092;43.582;19.528;2023-04-03T15:04:12;6.90;99.90
73360;DHT22;63092;43.582;19.528;2023-04-03T15:06:39;6.90;99.90
73360;DHT22;63092;43.582;19.528;2023-04-03T15:09:04;6.90;99.90
73360;DHT22;63092;43.582;19.528;2023-04-03T15:11:30;6.90;99.90
73360;DHT22;63092;43.582;19.528;2023-04-03T15:13:56;6.80;99.90
73360;DHT22;63092;43.582;19.528;2023-04-03T15:16:22;6.80;99.90
73360;DHT22;63092;43.582;19.528;2023-04-03T15:18:48;6.80;99.90
73360;DHT22;63092;43.582;19.528;2023-04-03T15:21:14;6.80;99.90
73360;DHT22;63092;43.582;19.528;2023-04-03T15:23:40;6.80;99.90
73360;DHT22;63092;43.582;19.528;2023-04-03T15:26:07;6.80;99.90
73360;DHT22;63092;43.582;19.528;2023-04-03T15:28:37;6.80;99.90
73360;DHT22;63092;43.582;19.528;2023-04-03T15:31:03;6.80;99.90
73360;DHT22;63092;43.582;19.528;2023-04-03T15:33:31;6.80;99.90
73360;DHT22;63092;43.582;19.528;2023-04-03T15:35:58;6.80;99.90
73360;DHT22;63092;43.582;19.528;2023-04-03T15:38:24;6.70;99.90
73360;DHT22;63092;43.582;19.528;2023-04-03T15:40:50;6.80;99.90
73360;DHT22;63092;43.582;19.528;2023-04-03T15:43:16;6.80;99.90
73360;DHT22;63092;43.582;19.528;2023-04-03T15:45:43;6.80;99.90
73360;DHT22;63092;43.582;19.528;2023-04-03T15:48:10;6.80;99.90
73360;DHT22;63092;43.582;19.528;2023-04-03T15:50:36;6.80;99.90
73360;DHT22;63092;43.582;19.528;2023-04-03T15:53:02;6.80;99.90
73360;DHT22;63092;43.582;19.528;2023-04-03T15:55:30;6.80;99.90
73360;DHT22;63092;43.582;19.528;2023-04-03T15:57:56;6.80;99.90
73360;DHT22;63092;43.582;19.528;2023-04-03T16:00:23;6.70;99.90
73360;DHT22;63092;43.582;19.528;2023-04-03T16:02:52;6.70;99.90
73360;DHT22;63092;43.582;19.528;2023-04-03T16:05:18;6.70;99.90
73360;DHT22;63092;43.582;19.528;2023-04-03T16:07:45;6.70;99.90
73360;DHT22;63092;43.582;19.528;2023-04-03T16:10:11;6.70;99.90
73360;DHT22;63092;43.582;19.528;2023-04-03T16:12:37;6.60;99.90
73360;DHT22;63092;43.582;19.528;2023-04-03T16:15:04;6.70;99.90
73360;DHT22;63092;43.582;19.528;2023-04-03T16:17:32;6.60;99.90
73360;DHT22;63092;43.582;19.528;2023-04-03T16:19:58;6.60;99.90
73360;DHT22;63092;43.582;19.528;2023-04-03T16:22:26;6.60;99.90
73360;DHT22;63092;43.582;19.528;2023-04-03T16:24:53;6.60;99.90
73360;DHT22;63092;43.582;19.528;2023-04-03T16:27:19;6.60;99.90
73360;DHT22;63092;43.582;19.528;2023-04-03T16:29:45;6.70;99.90
73360;DHT22;63092;43.582;19.528;2023-04-03T16:32:11;6.70;99.90
73360;DHT22;63092;43.582;19.528;2023-04-03T16:34:38;6.70;99.90
73360;DHT22;63092;43.582;19.528;2023-04-03T16:37:05;6.70;99.90
73360;DHT22;63092;43.582;19.528;2023-04-03T16:39:31;6.70;99.90
73360;DHT22;63092;43.582;19.528;2023-04-03T16:41:57;6.70;99.90
73360;DHT22;63092;43.582;19.528;2023-04-03T16:44:22;6.70;99.90
73360;DHT22;63092;43.582;19.528;2023-04-03T16:46:48;6.70;99.90
73360;DHT22;63092;43.582;19.528;2023-04-03T16:49:14;6.70;99.90
73360;DHT22;63092;43.582;19.528;2023-04-03T16:51:39;6.60;99.90
73360;DHT22;63092;43.582;19.528;2023-04-03T16:54:05;6.60;99.90
73360;DHT22;63092;43.582;19.528;2023-04-03T16:56:31;6.70;99.90
73360;DHT22;63092;43.582;19.528;2023-04-03T16:58:57;6.60;99.90
73360;DHT22;63092;43.582;19.528;2023-04-03T17:01:23;6.60;99.90
73360;DHT22;63092;43.582;19.528;2023-04-03T17:03:49;6.60;99.90
73360;DHT22;63092;43.582;19.528;2023-04-03T17:06:19;6.60;99.90
73360;DHT22;63092;43.582;19.528;2023-04-03T17:08:47;6.60;99.90
73360;DHT22;63092;43.582;19.528;2023-04-03T17:11:13;6.60;99.90
73360;DHT22;63092;43.582;19.528;2023-04-03T17:13:39;6.60;99.90
73360;DHT22;63092;43.582;19.528;2023-04-03T17:16:07;6.80;99.90
73360;DHT22;63092;43.582;19.528;2023-04-03T17:18:34;6.60;99.90
73360;DHT22;63092;43.582;19.528;2023-04-03T17:21:01;6.60;99.90
73360;DHT22;63092;43.582;19.528;2023-04-03T17:23:27;6.70;99.90
73360;DHT22;63092;43.582;19.528;2023-04-03T17:25:58;6.80;99.90
73360;DHT22;63092;43.582;19.528;2023-04-03T17:28:24;6.80;99.90
73360;DHT22;63092;43.582;19.528;2023-04-03T17:30:54;6.80;99.90
73360;DHT22;63092;43.582;19.528;2023-04-03T17:33:20;6.90;99.90